Latest Weather Observations for Casterton

IDV60801

Issued at 11:05 pm EST Sunday 20 April 2014 (issued every 30 minutes, with the page automatically refreshed every 10 minutes)

About weather observations | Map of weather stations | Latest weather observations for VIC | Other Formats
Station Details ID: 090182 Name: CASTERTON Lat: -37.58 Lon: 141.33 Height: 130.6 m
Data from the previous 72 hours. | See also: Recent months at Casterton
Date/Time
EST
Temp
°C
App
Temp
°C
Dew
Point
Rel
Hum
%
Delta-T
°C
Wind Press
QNH
hPa
Press
MSL
hPa
Rain
since 9 am
mm
Dir
 
Spd
km/h
Gust
km/h
Spd
kts
Gust
kts
20/11:00pm 13.3 12.8 12.7 96 0.3 NW 7 11 4 6 1017.1 - 0.0
20/10:30pm 14.1 13.1 13.5 96 0.3 NW 11 15 6 8 1017.3 - 0.0
20/10:00pm 13.7 12.3 13.4 98 0.2 NNW 13 17 7 9 1017.5 - 0.0
20/09:30pm 13.7 13.1 13.4 98 0.2 NNW 9 15 5 8 1017.3 - 0.0
20/09:00pm 13.6 12.6 13.3 98 0.2 NNW 11 13 6 7 1017.2 1017.1 0.0
20/08:30pm 14.4 12.2 13.3 93 0.6 NW 17 22 9 12 1017.2 - 0.0
20/08:00pm 14.5 12.0 12.4 87 1.2 NW 17 24 9 13 1017.2 - 0.0
20/07:30pm 14.3 12.1 12.2 87 1.1 NW 15 20 8 11 1017.0 - 0.0
20/07:00pm 14.1 12.1 11.6 85 1.3 NW 13 20 7 11 1016.7 - 0.0
20/06:30pm 15.2 12.0 11.4 78 2.1 NW 19 24 10 13 1016.5 - 0.0
20/06:00pm 16.7 13.4 11.0 69 3.1 NW 19 28 10 15 1016.1 1016.0 0.0
20/05:30pm 17.6 15.4 10.7 64 3.7 WNW 13 20 7 11 1015.7 - 0.0
20/05:00pm 18.2 14.7 10.1 59 4.3 NW 19 26 10 14 1015.4 - 0.0
20/04:30pm 18.5 14.9 9.8 57 4.6 WNW 19 26 10 14 1015.3 - 0.0
20/04:00pm 18.3 15.6 10.2 59 4.3 WNW 15 24 8 13 1015.3 - 0.0
20/03:30pm 18.5 15.0 10.1 58 4.5 NW 19 26 10 14 1015.3 - 0.0
20/03:00pm 18.1 14.5 9.7 58 4.5 WNW 19 28 10 15 1015.3 1015.2 0.0
20/02:30pm 19.1 14.9 9.6 54 5.1 NW 22 33 12 18 1015.2 - 0.0
20/02:00pm 18.8 15.4 9.0 53 5.2 WNW 17 28 9 15 1015.4 - 0.0
20/01:30pm 17.8 13.7 8.6 55 4.8 WNW 20 28 11 15 1015.9 - 0.0
20/01:00pm 17.7 13.1 8.3 54 4.8 WNW 22 28 12 15 1016.1 - 0.0
20/12:30pm 18.0 13.3 7.7 51 5.3 WNW 22 30 12 16 1016.4 - 0.0
20/12:00pm 17.4 11.7 6.6 49 5.4 NNW 26 37 14 20 1016.8 1016.7 0.0
20/11:30am 16.7 11.6 6.2 50 5.2 NW 22 35 12 19 1017.2 - 0.0
20/11:00am 17.0 11.6 6.5 50 5.2 NW 24 35 13 19 1017.2 - 0.0
20/10:30am 17.0 11.9 6.2 49 5.3 NW 22 30 12 16 1017.4 - 0.0
20/10:00am 16.0 11.4 6.7 54 4.6 NNW 20 26 11 14 1017.4 - 0.0
20/09:30am 14.5 10.6 7.1 61 3.6 NNW 17 24 9 13 1017.6 - 0.0
20/09:00am 13.5 9.2 7.1 65 3.1 NNW 19 26 10 14 1017.6 1017.5 0.0
20/08:30am 12.7 9.2 7.0 68 2.8 NNW 15 22 8 12 1017.4 - 0.0
20/08:00am 11.7 9.0 7.4 75 2.1 N 11 15 6 8 1017.2 - 0.0
20/07:30am 10.9 8.2 7.4 79 1.7 NNW 11 13 6 7 1016.9 - 0.0
20/07:00am 10.6 7.9 7.5 81 1.5 N 11 15 6 8 1016.7 - 0.0
20/06:30am 10.5 8.2 7.6 82 1.4 N 9 11 5 6 1016.7 - 0.0
20/06:00am 10.7 8.1 7.8 82 1.4 N 11 15 6 8 1016.5 1016.4 0.0
20/05:30am 10.8 9.0 7.9 82 1.4 NNW 7 9 4 5 1016.6 - 0.0
20/05:00am 10.8 9.1 8.2 84 1.3 N 7 9 4 5 1016.4 - 0.0
20/04:30am 10.9 9.1 8.0 82 1.4 N 7 11 4 6 1016.2 - 0.0
20/04:00am 10.6 8.8 8.0 84 1.3 N 7 11 4 6 1016.3 - 0.0
20/03:30am 11.2 8.3 8.2 82 1.5 N 13 15 7 8 1016.4 - 0.0
20/03:00am 11.6 8.7 8.1 79 1.7 N 13 20 7 11 1016.3 1016.2 0.0
20/02:30am 11.3 9.0 8.9 85 1.2 N 11 15 6 8 1016.5 - 0.0
20/02:00am 10.3 8.6 10.0 98 0.2 NE 9 13 5 7 1016.8 - 0.0
20/01:30am 10.3 9.2 9.8 97 0.3 NE 6 7 3 4 1016.9 - 0.0
20/01:00am 10.4 9.3 9.9 97 0.3 NNE 6 7 3 4 1017.1 - 0.0
20/12:30am 10.2 9.1 9.9 98 0.2 NE 6 7 3 4 1017.2 - 0.0
20/12:00am 10.1 10.1 9.8 98 0.2 NE 0 0 0 0 1017.4 1017.3 0.0
 
Date/Time
EST
Temp
°C
App
Temp
°C
Dew
Point
Rel
Hum
%
Delta-T
°C
Wind Press
QNH
hPa
Press
MSL
hPa
Rain
since 9 am
mm
Dir
 
Spd
km/h
Gust
km/h
Spd
kts
Gust
kts
19/11:30pm 10.3 10.4 10.0 98 0.2 CALM 0 0 0 0 1017.7 - 0.0
19/11:00pm 10.5 9.8 10.2 98 0.2 NNW 4 7 2 4 1018.0 - 0.0
19/10:30pm 10.5 9.2 10.0 97 0.3 NE 7 9 4 5 1018.1 - 0.0
19/10:00pm 10.5 10.6 10.2 98 0.2 CALM 0 0 0 0 1018.4 - 0.0
19/09:30pm 10.5 9.8 10.2 98 0.2 NE 4 6 2 3 1018.5 - 0.0
19/09:00pm 10.6 10.7 10.3 98 0.2 CALM 0 0 0 0 1018.6 1018.5 0.0
19/08:30pm 10.8 10.9 10.2 96 0.3 CALM 0 0 0 0 1018.7 - 0.0
19/08:00pm 11.0 9.9 10.1 94 0.5 S 6 9 3 5 1018.8 - 0.0
19/07:30pm 11.1 9.8 10.0 93 0.6 SE 7 11 4 6 1018.7 - 0.0
19/07:00pm 11.4 9.9 9.1 86 1.2 SSE 7 9 4 5 1018.8 - 0.0
19/06:30pm 11.8 11.0 8.1 78 1.8 WSW 2 9 1 5 1018.7 - 0.0
19/06:00pm 12.4 11.7 7.1 70 2.6 CALM 0 0 0 0 1018.6 1018.5 0.0
19/05:30pm 12.7 10.7 7.0 68 2.8 W 7 11 4 6 1018.7 - 0.0
19/05:00pm 13.3 12.9 8.2 71 2.5 CALM 0 9 0 5 1018.8 - 0.0
19/04:30pm 13.3 12.4 7.7 69 2.8 SSW 2 6 1 3 1018.9 - 0.0
19/04:00pm 13.2 11.6 7.9 70 2.6 S 6 9 3 5 1019.1 - 0.0
19/03:30pm 13.1 10.7 8.8 75 2.2 SW 11 15 6 8 1019.2 - 0.0
19/03:00pm 12.8 9.3 8.7 76 2.1 SSW 17 24 9 13 1019.2 1019.2 0.0
19/02:30pm 13.8 11.6 9.3 74 2.3 S 11 15 6 8 1019.3 - 0.0
19/02:00pm 12.6 10.1 9.6 82 1.5 S 13 17 7 9 1019.7 - 0.0
19/01:30pm 13.4 9.6 7.6 68 2.9 WNW 17 24 9 13 1020.0 - 0.0
19/01:00pm 15.8 13.1 7.3 57 4.2 WNW 11 17 6 9 1020.3 - 0.0
19/12:30pm 13.8 11.2 7.6 66 3.1 WSW 11 17 6 9 1020.9 - 0.0
19/12:00pm 14.6 12.0 7.6 63 3.5 WNW 11 17 6 9 1021.3 1021.2 0.0
19/11:30am 14.1 12.1 8.7 70 2.7 WSW 9 15 5 8 1021.6 - 0.0
19/11:00am 12.5 10.2 9.0 79 1.8 WSW 11 15 6 8 1021.9 - 0.0
19/10:30am 12.5 9.3 8.4 76 2.0 SW 15 20 8 11 1022.1 - 0.0
19/10:00am 13.5 12.0 9.2 75 2.2 WSW 7 11 4 6 1022.2 - 0.0
19/09:30am 11.9 11.0 9.1 83 1.4 NE 4 9 2 5 1022.3 - 0.0
19/09:00am 11.0 9.2 9.6 91 0.7 N 9 11 5 6 1022.3 1022.2 0.0
19/08:30am 9.8 9.7 9.5 98 0.2 CALM 0 0 0 0 1022.0 - 0.0
19/08:00am 8.9 8.6 8.6 98 0.1 CALM 0 0 0 0 1021.9 - 0.0
19/07:30am 8.1 7.6 7.8 98 0.1 CALM 0 0 0 0 1021.7 - 0.0
19/07:00am 7.9 6.2 7.6 98 0.1 NE 6 7 3 4 1021.5 - 0.0
19/06:30am 7.8 6.1 7.5 98 0.1 ENE 6 7 3 4 1021.3 - 0.0
19/06:00am 8.4 7.2 8.1 98 0.1 NE 4 9 2 5 1021.1 1021.0 0.0
19/05:30am 8.9 7.3 8.6 98 0.1 SSE 7 11 4 6 1021.2 - 0.0
19/05:00am 8.2 5.6 7.9 98 0.1 SSW 11 15 6 8 1021.2 - 0.0
19/04:30am 5.6 4.2 5.3 98 0.1 WSW 2 6 1 3 1021.0 - 0.0
19/04:00am 6.1 5.1 5.8 98 0.1 CALM 0 0 0 0 1020.9 - 0.0
19/03:30am 7.1 5.6 6.8 98 0.1 WNW 4 7 2 4 1020.9 - 0.0
19/03:00am 8.0 6.3 7.7 98 0.1 NNW 6 9 3 5 1021.0 1020.9 0.0
19/02:30am 8.6 8.2 8.3 98 0.1 CALM 0 0 0 0 1021.3 - 0.0
19/02:00am 8.4 8.0 8.1 98 0.1 CALM 0 0 0 0 1021.5 - 0.0
19/01:30am 8.7 8.3 8.4 98 0.1 CALM 0 0 0 0 1021.5 - 0.0
19/01:00am 8.4 7.6 8.1 98 0.1 WNW 2 6 1 3 1021.7 - 0.0
19/12:30am 8.0 7.5 7.7 98 0.1 CALM 0 0 0 0 1021.7 - 0.0
19/12:00am 8.2 7.7 7.9 98 0.1 CALM 0 0 0 0 1021.8 1021.7 0.0
 
Date/Time
EST
Temp
°C
App
Temp
°C
Dew
Point
Rel
Hum
%
Delta-T
°C
Wind Press
QNH
hPa
Press
MSL
hPa
Rain
since 9 am
mm
Dir
 
Spd
km/h
Gust
km/h
Spd
kts
Gust
kts
18/11:30pm 7.6 7.0 7.3 98 0.1 CALM 0 0 0 0 1021.9 - 0.0
18/11:00pm 7.1 6.0 6.8 98 0.1 W 2 6 1 3 1022.1 - 0.0
18/10:30pm 6.2 4.9 5.9 98 0.1 W 2 6 1 3 1022.2 - 0.0
18/10:00pm 6.9 6.1 6.6 98 0.1 CALM 0 0 0 0 1022.1 - 0.0
18/09:30pm 6.7 5.9 6.4 98 0.1 CALM 0 0 0 0 1022.1 - 0.0
18/09:00pm 7.1 6.3 6.7 97 0.2 CALM 0 6 0 3 1022.0 1021.9 0.0
18/08:30pm 7.8 7.1 7.1 95 0.3 CALM 0 2 0 1 1021.9 - 0.0
18/08:00pm 8.9 7.0 6.5 85 1.1 WNW 6 7 3 4 1021.8 - 0.0
18/07:30pm 11.1 9.2 6.8 75 2.1 WSW 6 7 3 4 1021.5 - 0.0
18/07:00pm 11.6 9.2 6.9 73 2.3 SW 9 13 5 7 1021.5 - 0.0
18/06:30pm 12.5 9.8 7.2 70 2.6 SW 11 20 6 11 1021.3 - 0.0
18/06:00pm 12.6 9.7 6.6 67 2.9 SSW 11 15 6 8 1021.1 1021.0 0.0
18/05:30pm 13.8 10.2 6.9 63 3.4 SSW 15 20 8 11 1020.9 - 0.0
18/05:00pm 14.1 9.0 6.0 58 3.9 S 22 33 12 18 1020.7 - 0.0
18/04:30pm 15.7 10.7 6.4 54 4.6 S 22 32 12 17 1020.3 - 0.0
18/04:00pm 16.2 10.2 5.5 49 5.2 SSW 26 37 14 20 1020.0 - 0.0
18/03:30pm 15.8 9.6 4.5 47 5.3 SW 26 41 14 22 1019.7 - 0.0
18/03:00pm 16.7 11.0 6.5 51 5.0 SW 26 39 14 21 1019.5 1019.5 0.0
18/02:30pm 18.0 12.3 6.5 47 5.7 SW 26 37 14 20 1019.3 - 0.0
18/02:00pm 17.8 13.7 7.8 52 5.1 WSW 19 28 10 15 1019.1 - 0.0
18/01:30pm 16.6 11.0 5.3 47 5.4 SW 24 35 13 19 1019.3 - 0.0
18/01:00pm 17.3 12.6 6.2 48 5.5 SSW 20 33 11 18 1019.4 - 0.0
18/12:30pm 16.5 11.8 6.1 50 5.1 SW 20 30 11 16 1019.6 - 0.0
18/12:00pm 17.5 11.7 6.4 48 5.5 SW 26 39 14 21 1019.3 1019.3 0.0
18/11:30am 16.2 11.2 6.6 53 4.7 SW 22 35 12 19 1019.3 - 0.0
18/11:00am 15.2 11.0 9.8 70 2.8 SSW 22 39 12 21 1019.1 - 0.0
18/10:30am 14.1 9.8 9.3 73 2.5 SSW 22 35 12 19 1019.0 - 0.0
18/10:00am 14.9 12.5 11.5 80 1.8 SSW 15 26 8 14 1018.8 - 0.0
18/09:30am 13.9 11.1 11.4 85 1.3 SSW 17 26 9 14 1018.7 - 0.0
18/09:00am 13.3 11.4 13.0 98 0.2 WSW 15 20 8 11 1018.5 1018.4 2.0
18/08:30am 12.9 10.9 12.6 98 0.2 SW 15 20 8 11 1018.0 - 2.0
18/08:00am 12.7 9.7 12.5 99 0.1 SW 20 28 11 15 1017.6 - 2.0
18/07:30am 12.9 10.1 12.7 99 0.1 SW 19 30 10 16 1016.9 - 1.8
18/07:00am 13.3 10.7 13.1 99 0.1 WSW 19 28 10 15 1016.4 - 1.2
18/06:30am 14.0 11.4 13.7 98 0.2 NW 20 30 11 16 1015.7 - 0.2
18/06:00am 13.7 11.5 13.4 98 0.2 NW 17 22 9 12 1015.5 1015.4 0.2
18/05:30am 13.6 11.0 13.3 98 0.2 NW 19 24 10 13 1015.6 - 0.2
18/05:00am 13.2 11.3 12.9 98 0.2 NW 15 20 8 11 1015.2 - 0.2
18/04:30am 14.3 11.8 14.0 98 0.2 WNW 20 37 11 20 1015.4 - 0.2
18/04:00am 15.1 12.2 12.2 83 1.6 NW 19 24 10 13 1015.4 - 0.0
18/03:30am 14.8 12.0 11.4 80 1.8 NNW 17 24 9 13 1015.5 - 0.0
18/03:00am 15.0 12.5 11.2 78 2.0 NNW 15 22 8 12 1015.5 1015.4 0.0
18/02:30am 15.1 12.2 10.9 76 2.2 NNW 17 20 9 11 1015.9 - 0.0
18/02:00am 14.7 11.6 10.3 75 2.3 NNW 17 22 9 12 1016.0 - 0.0
18/01:30am 14.0 12.1 10.6 80 1.8 NNW 11 15 6 8 1016.1 - 0.0
18/01:00am 13.4 11.6 10.8 84 1.4 NNW 11 13 6 7 1016.1 - 0.0
18/12:30am 13.2 11.4 10.7 85 1.3 N 11 17 6 9 1016.3 - 0.0
18/12:00am 10.2 8.9 9.9 98 0.2 NNE 7 11 4 6 1017.0 1016.9 0.0
 
Date/Time
EST
Temp
°C
App
Temp
°C
Dew
Point
Rel
Hum
%
Delta-T
°C
Wind Press
QNH
hPa
Press
MSL
hPa
Rain
since 9 am
mm
Dir
 
Spd
km/h
Gust
km/h
Spd
kts
Gust
kts
17/11:30pm 10.1 9.3 9.8 98 0.2 N 4 6 2 3 1017.6 - 0.0

Other Formats:

Comma delimited format used in spreadsheet applications
http://www.bom.gov.au/fwo/IDV60801/IDV60801.95825.axf

JavaScript Object Notation format (JSON) in row-major order
http://www.bom.gov.au/fwo/IDV60801/IDV60801.95825.json